Alajuela, Costa Rica

11:34 PM CST on January 20, 2017 (GMT -0600)
Unnamed Road | | Change Station

Elev 2349 ft 9.95 °N, 84.28 °W | Updated 4 minutes ago

Partly Cloudy
Partly Cloudy
75.2 °F
Feels Like 77 °F
N
0.0
Wind Variable Wind from North
Gusts 0.6 mph

Today
High -- | Low -- °F
--% Chance of Precip.
Yesterday
High -- | Low -- °F
Precip. -- in
Pressure 30.11 in
Visibility 6.2 miles
Clouds Few 1500 ft
Heat Index 77 °F
Dew Point 66 °F
Humidity 74%
Rainfall 0.00 in
Snow Depth Not available.
6:00 AM 5:37 PM
Last Quarter, 38% visible
METAR MROC 210500Z 12003KT 9999 FEW015 19/18 A3011 NOSIG
Pressure 30.11 in
Visibility 6.2 miles
Clouds Few 1500 ft
Heat Index 77 °F
Dew Point 66 °F
Humidity 74%
Rainfall 0.00 in
Snow Depth Not available.
6:00 AM 5:37 PM
Last Quarter, 38% visible
METAR MROC 210500Z 12003KT 9999 FEW015 19/18 A3011 NOSIG

Get Your Daily Forecast Email!

Thanks for signing up!

Be on the lookout for a verification email in your inbox.

You'll start receiving the daily forecast at 8 AM.

×

10-Day Weather Forecast

No radar image for this location.
×

Almanac

Astronomy

Jan. 20, 2017 Rise Set
Actual Time
Civil Twilight
Nautical Twilight
Astronomical Twilight
Moon
Length of Visible Light
Length of Day
Tomorrow will be .
, % of the Moon is Illuminated

Today's Extremes

Country Highs Country Lows

Community

WunderPhotos

Upload Photos

1,962,540 photos uploaded!

WunderBlog® & News

Nearby

Air Quality

  Air Quality AQ Index Pollutant
Not available.

Snow Depth

Station Depth Elevation

Earthquake Activity

City Distance Mag. Time & Date
Minimum magnitude displayed is 2.5.

Coastal Water Temperatures

Place Temperature

Stations

Nearby Weather Stations

Station Location Temp. Windchill Dew Point Humidity Wind Precip. Elev Updated Type